X  Schließen METAR Luftfahrt Wetterdaten     EDDL Düsseldorf Airport
Temperatur
14°C Temperatur
8°C Taupunkt
67% Feuchtigkeit



Wind
16 km/h
10 MPS
4 M/S
9 KTS



180°
Süd
Aktuelle Wetterlage

Teilweise bewölkt Teilweise bewölkt
Luftdruck 1017.92 (hPa) - 30.06 (inHg)
Sichtweite 6.2 (Meile) - 10 (Km)
Flughafen
Flughafen Code EDDL

Position : Düsseldorf Airport
Entfernung: 10 (Km)

Metar:
EDDL 251320Z 18009KT 9999 FEW026 BKN034 14/08 Q1018 NOSIG

Zeit: 25-10-2021 15:20 CEST